sensor_id;sensor_type;location;lat;lon;timestamp;pressure;altitude;pressure_sealevel;temperature;humidity
66381;BME280;53177;52.648;1.214;2022-10-16T00:01:24;99838.09;;;10.52;99.12
66381;BME280;53177;52.648;1.214;2022-10-16T00:03:50;99843.44;;;10.52;100.00
66381;BME280;53177;52.648;1.214;2022-10-16T00:06:18;99839.44;;;10.50;100.00
66381;BME280;53177;52.648;1.214;2022-10-16T00:08:44;99837.84;;;10.54;100.00
66381;BME280;53177;52.648;1.214;2022-10-16T00:11:16;99835.41;;;10.52;100.00
66381;BME280;53177;52.648;1.214;2022-10-16T00:13:43;99846.41;;;10.51;100.00
66381;BME280;53177;52.648;1.214;2022-10-16T00:16:10;99841.56;;;10.48;100.00
66381;BME280;53177;52.648;1.214;2022-10-16T00:18:36;99848.03;;;10.47;100.00
66381;BME280;53177;52.648;1.214;2022-10-16T00:21:10;99856.34;;;10.50;100.00
66381;BME280;53177;52.648;1.214;2022-10-16T00:23:36;99847.75;;;10.53;100.00
66381;BME280;53177;52.648;1.214;2022-10-16T00:26:05;99846.69;;;10.54;100.00
66381;BME280;53177;52.648;1.214;2022-10-16T00:28:31;99849.63;;;10.53;100.00
66381;BME280;53177;52.648;1.214;2022-10-16T00:30:57;99862.53;;;10.51;100.00
66381;BME280;53177;52.648;1.214;2022-10-16T00:33:23;99853.91;;;10.49;100.00
66381;BME280;53177;52.648;1.214;2022-10-16T00:35:48;99852.31;;;10.53;100.00
66381;BME280;53177;52.648;1.214;2022-10-16T00:38:15;99858.75;;;10.52;100.00
66381;BME280;53177;52.648;1.214;2022-10-16T00:40:41;99851.25;;;10.54;100.00
66381;BME280;53177;52.648;1.214;2022-10-16T00:43:13;99857.69;;;10.58;100.00
66381;BME280;53177;52.648;1.214;2022-10-16T00:45:39;99850.19;;;10.55;100.00
66381;BME280;53177;52.648;1.214;2022-10-16T00:48:11;99856.63;;;10.59;100.00
66381;BME280;53177;52.648;1.214;2022-10-16T00:50:39;99853.13;;;10.58;100.00
66381;BME280;53177;52.648;1.214;2022-10-16T00:53:08;99852.88;;;10.55;100.00
66381;BME280;53177;52.648;1.214;2022-10-16T00:55:34;99857.44;;;10.54;100.00
66381;BME280;53177;52.648;1.214;2022-10-16T00:58:00;99863.59;;;10.55;100.00
66381;BME280;53177;52.648;1.214;2022-10-16T01:00:27;99861.44;;;10.57;100.00
66381;BME280;53177;52.648;1.214;2022-10-16T01:02:54;99862.53;;;10.56;100.00
66381;BME280;53177;52.648;1.214;2022-10-16T01:05:22;99859.84;;;10.56;100.00
66381;BME280;53177;52.648;1.214;2022-10-16T01:13:01;99862.25;;;10.52;100.00
66381;BME280;53177;52.648;1.214;2022-10-16T01:18:39;99866.28;;;10.60;100.00
66381;BME280;53177;52.648;1.214;2022-10-16T01:21:16;99873.56;;;10.54;100.00
66381;BME280;53177;52.648;1.214;2022-10-16T01:31:53;99871.38;;;10.46;100.00
66381;BME280;53177;52.648;1.214;2022-10-16T01:34:35;99874.88;;;10.47;100.00
66381;BME280;53177;52.648;1.214;2022-10-16T01:37:07;99874.88;;;10.47;99.92
66381;BME280;53177;52.648;1.214;2022-10-16T01:39:37;99869.50;;;10.47;99.42
66381;BME280;53177;52.648;1.214;2022-10-16T01:42:14;99877.28;;;10.43;99.64
66381;BME280;53177;52.648;1.214;2022-10-16T01:44:41;99877.28;;;10.43;99.80
66381;BME280;53177;52.648;1.214;2022-10-16T01:47:09;99881.84;;;10.43;99.77
66381;BME280;53177;52.648;1.214;2022-10-16T01:49:36;99885.63;;;10.42;99.69
66381;BME280;53177;52.648;1.214;2022-10-16T01:52:07;99886.66;;;10.30;100.00
66381;BME280;53177;52.648;1.214;2022-10-16T01:54:35;99886.13;;;10.33;99.96
66381;BME280;53177;52.648;1.214;2022-10-16T01:57:04;99886.13;;;10.38;99.31
66381;BME280;53177;52.648;1.214;2022-10-16T01:59:32;99879.16;;;10.27;99.77
66381;BME280;53177;52.648;1.214;2022-10-16T02:02:05;99897.38;;;10.25;100.00
66381;BME280;53177;52.648;1.214;2022-10-16T02:05:14;99890.41;;;10.24;99.63
66381;BME280;53177;52.648;1.214;2022-10-16T02:07:41;99889.34;;;10.25;99.54
66381;BME280;53177;52.648;1.214;2022-10-16T02:10:08;99885.00;;;10.19;100.00
66381;BME280;53177;52.648;1.214;2022-10-16T02:12:36;99890.66;;;10.23;99.37
66381;BME280;53177;52.648;1.214;2022-10-16T02:15:05;99883.72;;;10.27;99.11
66381;BME280;53177;52.648;1.214;2022-10-16T02:17:31;99885.06;;;10.34;99.02
66381;BME280;53177;52.648;1.214;2022-10-16T02:19:58;99882.38;;;10.29;99.19
66381;BME280;53177;52.648;1.214;2022-10-16T02:22:28;99892.03;;;10.30;99.00
66381;BME280;53177;52.648;1.214;2022-10-16T02:25:19;99887.69;;;10.19;100.00
66381;BME280;53177;52.648;1.214;2022-10-16T02:27:57;99896.28;;;10.21;100.00
66381;BME280;53177;52.648;1.214;2022-10-16T02:30:48;99897.06;;;10.22;100.00
66381;BME280;53177;52.648;1.214;2022-10-16T02:33:15;99905.44;;;10.25;100.00
66381;BME280;53177;52.648;1.214;2022-10-16T02:35:43;99895.78;;;10.24;99.98
66381;BME280;53177;52.648;1.214;2022-10-16T02:38:11;99903.84;;;10.24;100.00
66381;BME280;53177;52.648;1.214;2022-10-16T02:40:37;99899.50;;;10.23;100.00
66381;BME280;53177;52.648;1.214;2022-10-16T02:43:04;99907.00;;;10.21;100.00
66381;BME280;53177;52.648;1.214;2022-10-16T02:45:29;99902.72;;;10.15;100.00
66381;BME280;53177;52.648;1.214;2022-10-16T02:47:55;99893.59;;;10.16;100.00
66381;BME280;53177;52.648;1.214;2022-10-16T02:50:22;99899.47;;;10.13;100.00
66381;BME280;53177;52.648;1.214;2022-10-16T02:52:48;99908.31;;;10.08;100.00
66381;BME280;53177;52.648;1.214;2022-10-16T02:55:13;99915.34;;;10.15;100.00
66381;BME280;53177;52.648;1.214;2022-10-16T02:57:39;99924.19;;;10.15;100.00
66381;BME280;53177;52.648;1.214;2022-10-16T03:00:08;99917.47;;;10.18;100.00
66381;BME280;53177;52.648;1.214;2022-10-16T03:02:33;99912.66;;;10.20;99.98
66381;BME280;53177;52.648;1.214;2022-10-16T03:04:59;99926.06;;;10.20;100.00
66381;BME280;53177;52.648;1.214;2022-10-16T03:07:24;99928.81;;;10.25;99.17
66381;BME280;53177;52.648;1.214;2022-10-16T03:09:50;99934.97;;;10.25;99.45
66381;BME280;53177;52.648;1.214;2022-10-16T03:12:15;99924.72;;;10.22;99.70
66381;BME280;53177;52.648;1.214;2022-10-16T03:14:41;99929.84;;;10.24;99.34
66381;BME280;53177;52.648;1.214;2022-10-16T03:17:06;99928.50;;;10.21;99.84
66381;BME280;53177;52.648;1.214;2022-10-16T03:19:31;99927.16;;;10.24;99.81
66381;BME280;53177;52.648;1.214;2022-10-16T03:21:57;99929.59;;;10.25;99.73
66381;BME280;53177;52.648;1.214;2022-10-16T03:24:22;99930.69;;;10.24;100.00
66381;BME280;53177;52.648;1.214;2022-10-16T03:26:48;99939.53;;;10.25;99.97
66381;BME280;53177;52.648;1.214;2022-10-16T03:29:13;99933.38;;;10.24;100.00
66381;BME280;53177;52.648;1.214;2022-10-16T03:31:38;99946.19;;;10.22;100.00
66381;BME280;53177;52.648;1.214;2022-10-16T03:34:04;99943.28;;;10.24;100.00
66381;BME280;53177;52.648;1.214;2022-10-16T03:36:29;99948.88;;;10.17;100.00
66381;BME280;53177;52.648;1.214;2022-10-16T03:38:55;99940.03;;;10.17;100.00
66381;BME280;53177;52.648;1.214;2022-10-16T03:41:20;99938.69;;;10.19;100.00
66381;BME280;53177;52.648;1.214;2022-10-16T03:43:45;99936.53;;;10.16;100.00
66381;BME280;53177;52.648;1.214;2022-10-16T03:46:16;99941.38;;;10.14;100.00
66381;BME280;53177;52.648;1.214;2022-10-16T03:48:42;99941.09;;;10.16;100.00
66381;BME280;53177;52.648;1.214;2022-10-16T03:51:07;99944.06;;;10.19;100.00
66381;BME280;53177;52.648;1.214;2022-10-16T03:53:33;99959.88;;;10.16;100.00
66381;BME280;53177;52.648;1.214;2022-10-16T03:55:58;99962.84;;;10.14;100.00
66381;BME280;53177;52.648;1.214;2022-10-16T03:58:23;99969.81;;;10.15;100.00
66381;BME280;53177;52.648;1.214;2022-10-16T04:00:49;99962.56;;;10.16;100.00
66381;BME280;53177;52.648;1.214;2022-10-16T04:03:15;99965.25;;;10.16;100.00
66381;BME280;53177;52.648;1.214;2022-10-16T04:05:40;99964.72;;;10.13;100.00
66381;BME280;53177;52.648;1.214;2022-10-16T04:08:06;99974.38;;;10.15;100.00
66381;BME280;53177;52.648;1.214;2022-10-16T04:10:31;99973.59;;;10.19;100.00
66381;BME280;53177;52.648;1.214;2022-10-16T04:12:57;99974.91;;;10.17;100.00
66381;BME280;53177;52.648;1.214;2022-10-16T04:15:23;99982.44;;;10.15;100.00
66381;BME280;53177;52.648;1.214;2022-10-16T04:17:49;99971.69;;;10.15;100.00
66381;BME280;53177;52.648;1.214;2022-10-16T04:20:15;99976.78;;;10.16;100.00
66381;BME280;53177;52.648;1.214;2022-10-16T04:22:41;99985.34;;;10.13;100.00
66381;BME280;53177;52.648;1.214;2022-10-16T04:25:07;99981.88;;;10.12;100.00
66381;BME280;53177;52.648;1.214;2022-10-16T04:27:32;99992.59;;;10.07;100.00
66381;BME280;53177;52.648;1.214;2022-10-16T04:29:59;99998.22;;;10.06;100.00
66381;BME280;53177;52.648;1.214;2022-10-16T04:32:25;100004.69;;;10.10;100.00
66381;BME280;53177;52.648;1.214;2022-10-16T04:34:51;100015.44;;;10.10;100.00
66381;BME280;53177;52.648;1.214;2022-10-16T04:37:16;100024.00;;;10.07;100.00
66381;BME280;53177;52.648;1.214;2022-10-16T04:39:42;100027.47;;;10.07;100.00
66381;BME280;53177;52.648;1.214;2022-10-16T04:42:08;100021.28;;;10.02;100.00
66381;BME280;53177;52.648;1.214;2022-10-16T04:44:33;100026.94;;;10.05;100.00
66381;BME280;53177;52.648;1.214;2022-10-16T04:46:58;100029.34;;;10.02;100.00
66381;BME280;53177;52.648;1.214;2022-10-16T04:49:24;100034.19;;;10.05;100.00
66381;BME280;53177;52.648;1.214;2022-10-16T04:51:49;100030.94;;;10.03;100.00
66381;BME280;53177;52.648;1.214;2022-10-16T04:54:15;100053.50;;;10.02;100.00
66381;BME280;53177;52.648;1.214;2022-10-16T04:56:40;100059.13;;;10.00;100.00
66381;BME280;53177;52.648;1.214;2022-10-16T04:59:13;100066.91;;;10.02;100.00
66381;BME280;53177;52.648;1.214;2022-10-16T05:01:38;100059.66;;;10.02;100.00
66381;BME280;53177;52.648;1.214;2022-10-16T05:04:04;100061.53;;;9.97;100.00
66381;BME280;53177;52.648;1.214;2022-10-16T05:06:29;100066.59;;;9.93;100.00
66381;BME280;53177;52.648;1.214;2022-10-16T05:08:54;100083.50;;;9.94;100.00
66381;BME280;53177;52.648;1.214;2022-10-16T05:11:20;100091.28;;;9.95;99.55
66381;BME280;53177;52.648;1.214;2022-10-16T05:13:45;100093.72;;;9.97;99.24
66381;BME280;53177;52.648;1.214;2022-10-16T05:16:11;100101.78;;;9.97;99.42
66381;BME280;53177;52.648;1.214;2022-10-16T05:18:36;100100.97;;;9.96;99.19
66381;BME280;53177;52.648;1.214;2022-10-16T05:21:02;100111.94;;;9.95;99.15
66381;BME280;53177;52.648;1.214;2022-10-16T05:23:27;100113.81;;;9.94;98.81
66381;BME280;53177;52.648;1.214;2022-10-16T05:25:54;100125.34;;;9.95;98.31
66381;BME280;53177;52.648;1.214;2022-10-16T05:28:20;100126.13;;;9.90;98.66
66381;BME280;53177;52.648;1.214;2022-10-16T05:30:46;100132.84;;;9.87;98.72
66381;BME280;53177;52.648;1.214;2022-10-16T05:33:11;100133.38;;;9.90;98.00
66381;BME280;53177;52.648;1.214;2022-10-16T05:35:37;100141.91;;;9.81;98.71
66381;BME280;53177;52.648;1.214;2022-10-16T05:38:02;100138.09;;;9.77;98.89
66381;BME280;53177;52.648;1.214;2022-10-16T05:40:28;100150.47;;;9.78;98.32
66381;BME280;53177;52.648;1.214;2022-10-16T05:42:55;100161.72;;;9.75;98.66
66381;BME280;53177;52.648;1.214;2022-10-16T05:45:20;100156.50;;;9.63;99.39
66381;BME280;53177;52.648;1.214;2022-10-16T05:47:46;100154.38;;;9.66;98.91
66381;BME280;53177;52.648;1.214;2022-10-16T05:50:13;100160.00;;;9.64;98.94
66381;BME280;53177;52.648;1.214;2022-10-16T05:52:38;100160.06;;;9.69;98.28
66381;BME280;53177;52.648;1.214;2022-10-16T05:55:04;100171.78;;;9.63;98.44
66381;BME280;53177;52.648;1.214;2022-10-16T05:57:30;100174.47;;;9.63;98.82
66381;BME280;53177;52.648;1.214;2022-10-16T05:59:55;100170.69;;;9.59;98.70
66381;BME280;53177;52.648;1.214;2022-10-16T06:02:21;100180.88;;;9.57;98.64
66381;BME280;53177;52.648;1.214;2022-10-16T06:04:46;100189.97;;;9.56;98.67
66381;BME280;53177;52.648;1.214;2022-10-16T06:07:12;100197.50;;;9.59;97.73
66381;BME280;53177;52.648;1.214;2022-10-16T06:09:42;100213.03;;;9.57;98.17
66381;BME280;53177;52.648;1.214;2022-10-16T06:12:13;100205.53;;;9.59;97.57
66381;BME280;53177;52.648;1.214;2022-10-16T06:14:41;100214.66;;;9.58;97.56
66381;BME280;53177;52.648;1.214;2022-10-16T06:17:16;100211.66;;;9.54;97.82
66381;BME280;53177;52.648;1.214;2022-10-16T06:19:45;100223.81;;;9.62;97.27
66381;BME280;53177;52.648;1.214;2022-10-16T06:22:14;100225.66;;;9.56;97.02
66381;BME280;53177;52.648;1.214;2022-10-16T06:24:43;100224.28;;;9.54;97.31
66381;BME280;53177;52.648;1.214;2022-10-16T06:27:12;100230.44;;;9.54;97.10
66381;BME280;53177;52.648;1.214;2022-10-16T06:29:41;100237.38;;;9.50;97.24
66381;BME280;53177;52.648;1.214;2022-10-16T06:32:10;100237.94;;;9.52;97.19
66381;BME280;53177;52.648;1.214;2022-10-16T06:34:39;100237.09;;;9.47;97.42
66381;BME280;53177;52.648;1.214;2022-10-16T06:37:07;100247.81;;;9.47;97.31
66381;BME280;53177;52.648;1.214;2022-10-16T06:39:35;100257.97;;;9.45;97.52
66381;BME280;53177;52.648;1.214;2022-10-16T06:42:09;100247.22;;;9.45;97.73
66381;BME280;53177;52.648;1.214;2022-10-16T06:44:41;100254.72;;;9.43;97.62
66381;BME280;53177;52.648;1.214;2022-10-16T06:47:13;100256.41;;;9.49;97.40
66381;BME280;53177;52.648;1.214;2022-10-16T06:49:41;100261.13;;;9.42;97.87
66381;BME280;53177;52.648;1.214;2022-10-16T06:52:10;100273.72;;;9.41;97.94
66381;BME280;53177;52.648;1.214;2022-10-16T06:54:35;100274.69;;;9.52;97.43
66381;BME280;53177;52.648;1.214;2022-10-16T06:57:00;100290.50;;;9.53;97.19
66381;BME280;53177;52.648;1.214;2022-10-16T06:59:27;100302.00;;;9.49;97.44
66381;BME280;53177;52.648;1.214;2022-10-16T07:01:52;100299.84;;;9.51;97.37
66381;BME280;53177;52.648;1.214;2022-10-16T07:04:17;100300.97;;;9.55;96.96
66381;BME280;53177;52.648;1.214;2022-10-16T07:06:43;100318.41;;;9.52;96.84
66381;BME280;53177;52.648;1.214;2022-10-16T07:09:09;100326.19;;;9.54;97.30
66381;BME280;53177;52.648;1.214;2022-10-16T07:11:37;100325.06;;;9.50;97.59
66381;BME280;53177;52.648;1.214;2022-10-16T07:14:03;100333.25;;;9.60;96.52
66381;BME280;53177;52.648;1.214;2022-10-16T07:16:31;100334.28;;;9.59;97.39
66381;BME280;53177;52.648;1.214;2022-10-16T07:18:58;100334.53;;;9.57;97.18
66381;BME280;53177;52.648;1.214;2022-10-16T07:21:29;100342.38;;;9.64;97.19
66381;BME280;53177;52.648;1.214;2022-10-16T07:23:57;100348.31;;;9.66;96.99
66381;BME280;53177;52.648;1.214;2022-10-16T07:26:24;100359.59;;;9.68;96.64
66381;BME280;53177;52.648;1.214;2022-10-16T07:28:50;100360.72;;;9.72;96.54
66381;BME280;53177;52.648;1.214;2022-10-16T07:31:19;100373.16;;;9.78;96.22
66381;BME280;53177;52.648;1.214;2022-10-16T07:33:46;100384.44;;;9.80;96.32
66381;BME280;53177;52.648;1.214;2022-10-16T07:36:17;100378.56;;;9.83;96.10
66381;BME280;53177;52.648;1.214;2022-10-16T07:38:44;100388.78;;;9.86;95.65
66381;BME280;53177;52.648;1.214;2022-10-16T07:41:12;100388.28;;;9.90;95.80
66381;BME280;53177;52.648;1.214;2022-10-16T07:43:38;100397.53;;;9.99;95.23
66381;BME280;53177;52.648;1.214;2022-10-16T07:46:03;100395.41;;;10.01;95.20
66381;BME280;53177;52.648;1.214;2022-10-16T07:48:31;100409.44;;;10.08;95.11
66381;BME280;53177;52.648;1.214;2022-10-16T07:50:59;100407.06;;;10.11;94.82
66381;BME280;53177;52.648;1.214;2022-10-16T07:53:24;100397.81;;;10.24;93.32
66381;BME280;53177;52.648;1.214;2022-10-16T07:55:50;100409.59;;;10.23;93.07
66381;BME280;53177;52.648;1.214;2022-10-16T07:58:15;100416.13;;;10.27;93.06
66381;BME280;53177;52.648;1.214;2022-10-16T08:00:41;100422.63;;;10.31;92.37
66381;BME280;53177;52.648;1.214;2022-10-16T08:03:07;100430.72;;;10.36;92.83
66381;BME280;53177;52.648;1.214;2022-10-16T08:05:33;100436.69;;;10.44;92.51
66381;BME280;53177;52.648;1.214;2022-10-16T08:07:59;100436.81;;;10.54;92.22
66381;BME280;53177;52.648;1.214;2022-10-16T08:10:27;100452.97;;;10.59;91.92
66381;BME280;53177;52.648;1.214;2022-10-16T08:12:53;100447.13;;;10.67;90.97
66381;BME280;53177;52.648;1.214;2022-10-16T08:15:19;100464.06;;;10.68;91.07
66381;BME280;53177;52.648;1.214;2022-10-16T08:17:55;100460.09;;;10.75;91.08
66381;BME280;53177;52.648;1.214;2022-10-16T08:20:22;100455.31;;;10.82;90.92
66381;BME280;53177;52.648;1.214;2022-10-16T08:22:47;100460.47;;;10.89;90.15
66381;BME280;53177;52.648;1.214;2022-10-16T08:25:13;100462.19;;;11.00;90.13
66381;BME280;53177;52.648;1.214;2022-10-16T08:27:38;100472.44;;;11.03;89.18
66381;BME280;53177;52.648;1.214;2022-10-16T08:30:05;100475.16;;;11.08;89.28
66381;BME280;53177;52.648;1.214;2022-10-16T08:32:31;100479.41;;;11.36;88.64
66381;BME280;53177;52.648;1.214;2022-10-16T08:34:56;100486.97;;;11.39;87.80
66381;BME280;53177;52.648;1.214;2022-10-16T08:37:22;100493.41;;;11.38;86.78
66381;BME280;53177;52.648;1.214;2022-10-16T08:39:47;100489.72;;;11.55;86.41
66381;BME280;53177;52.648;1.214;2022-10-16T08:51:04;100514.28;;;12.06;82.40
66381;BME280;53177;52.648;1.214;2022-10-16T08:53:45;100513.50;;;12.16;82.14
66381;BME280;53177;52.648;1.214;2022-10-16T08:56:11;100521.88;;;12.19;81.68
66381;BME280;53177;52.648;1.214;2022-10-16T08:58:37;100526.78;;;12.37;82.19
66381;BME280;53177;52.648;1.214;2022-10-16T09:01:12;100520.84;;;12.40;81.24
66381;BME280;53177;52.648;1.214;2022-10-16T09:12:10;100545.22;;;12.76;75.41
66381;BME280;53177;52.648;1.214;2022-10-16T09:15:13;100544.97;;;12.93;75.99
66381;BME280;53177;52.648;1.214;2022-10-16T09:17:53;100554.97;;;12.98;75.23
66381;BME280;53177;52.648;1.214;2022-10-16T09:25:33;100563.63;;;13.10;74.57
66381;BME280;53177;52.648;1.214;2022-10-16T09:28:00;100559.34;;;13.34;73.79
66381;BME280;53177;52.648;1.214;2022-10-16T09:30:28;100558.00;;;13.57;71.80
66381;BME280;53177;52.648;1.214;2022-10-16T09:32:54;100562.03;;;13.60;69.34
66381;BME280;53177;52.648;1.214;2022-10-16T09:35:31;100567.16;;;13.77;70.40
66381;BME280;53177;52.648;1.214;2022-10-16T09:37:58;100574.94;;;13.94;70.91
66381;BME280;53177;52.648;1.214;2022-10-16T09:43:01;100590.34;;;13.93;68.56
66381;BME280;53177;52.648;1.214;2022-10-16T09:45:30;100586.81;;;13.93;67.26
66381;BME280;53177;52.648;1.214;2022-10-16T09:47:55;100597.59;;;14.13;68.48
66381;BME280;53177;52.648;1.214;2022-10-16T09:50:27;100596.41;;;14.39;65.41
66381;BME280;53177;52.648;1.214;2022-10-16T09:53:13;100603.41;;;14.46;64.83
66381;BME280;53177;52.648;1.214;2022-10-16T09:55:53;100598.84;;;14.51;65.67
66381;BME280;53177;52.648;1.214;2022-10-16T09:58:21;100599.06;;;14.65;65.62
66381;BME280;53177;52.648;1.214;2022-10-16T10:00:52;100605.66;;;14.33;62.73
66381;BME280;53177;52.648;1.214;2022-10-16T10:03:37;100605.63;;;14.38;63.60
66381;BME280;53177;52.648;1.214;2022-10-16T10:06:16;100607.75;;;14.41;61.21
66381;BME280;53177;52.648;1.214;2022-10-16T10:08:56;100611.53;;;14.56;61.70
66381;BME280;53177;52.648;1.214;2022-10-16T10:11:44;100615.28;;;14.65;61.46
66381;BME280;53177;52.648;1.214;2022-10-16T10:14:18;100623.56;;;14.84;62.54
66381;BME280;53177;52.648;1.214;2022-10-16T10:16:45;100622.59;;;15.14;61.67
66381;BME280;53177;52.648;1.214;2022-10-16T10:19:19;100617.06;;;15.29;57.98
66381;BME280;53177;52.648;1.214;2022-10-16T10:21:44;100626.63;;;15.16;59.43
66381;BME280;53177;52.648;1.214;2022-10-16T10:24:14;100633.13;;;15.55;59.31
66381;BME280;53177;52.648;1.214;2022-10-16T10:26:57;100632.13;;;15.46;59.37
66381;BME280;53177;52.648;1.214;2022-10-16T10:29:36;100632.72;;;15.37;62.00
66381;BME280;53177;52.648;1.214;2022-10-16T10:32:17;100636.22;;;15.77;59.00
66381;BME280;53177;52.648;1.214;2022-10-16T10:34:59;100639.03;;;15.67;58.31
66381;BME280;53177;52.648;1.214;2022-10-16T10:41:00;100645.91;;;15.83;55.20
66381;BME280;53177;52.648;1.214;2022-10-16T10:43:27;100655.03;;;15.58;55.97
66381;BME280;53177;52.648;1.214;2022-10-16T10:46:04;100658.06;;;15.52;56.43
66381;BME280;53177;52.648;1.214;2022-10-16T10:53:58;100652.19;;;15.79;55.29
66381;BME280;53177;52.648;1.214;2022-10-16T10:56:51;100650.81;;;16.10;54.00
66381;BME280;53177;52.648;1.214;2022-10-16T11:02:00;100663.88;;;16.32;55.38
66381;BME280;53177;52.648;1.214;2022-10-16T11:07:31;100660.47;;;16.46;53.89
66381;BME280;53177;52.648;1.214;2022-10-16T11:10:07;100657.44;;;16.76;53.64
66381;BME280;53177;52.648;1.214;2022-10-16T11:12:38;100661.75;;;16.53;51.23
66381;BME280;53177;52.648;1.214;2022-10-16T11:15:14;100663.59;;;16.05;51.21
66381;BME280;53177;52.648;1.214;2022-10-16T11:17:54;100663.41;;;16.25;53.26
66381;BME280;53177;52.648;1.214;2022-10-16T11:20:32;100669.66;;;16.74;51.85
66381;BME280;53177;52.648;1.214;2022-10-16T11:23:16;100676.78;;;16.64;48.66
66381;BME280;53177;52.648;1.214;2022-10-16T11:25:45;100673.13;;;16.79;55.09
66381;BME280;53177;52.648;1.214;2022-10-16T11:28:13;100671.97;;;16.61;47.18
66381;BME280;53177;52.648;1.214;2022-10-16T11:30:51;100670.00;;;16.67;47.69
66381;BME280;53177;52.648;1.214;2022-10-16T11:33:26;100667.34;;;17.05;49.69
66381;BME280;53177;52.648;1.214;2022-10-16T11:38:58;100664.72;;;17.00;48.15
66381;BME280;53177;52.648;1.214;2022-10-16T11:41:34;100666.78;;;17.27;48.28
66381;BME280;53177;52.648;1.214;2022-10-16T11:44:14;100670.25;;;17.32;52.83
66381;BME280;53177;52.648;1.214;2022-10-16T11:46:51;100680.75;;;17.20;46.29
66381;BME280;53177;52.648;1.214;2022-10-16T11:49:21;100677.94;;;17.44;46.79
66381;BME280;53177;52.648;1.214;2022-10-16T11:52:12;100686.44;;;17.56;46.20
66381;BME280;53177;52.648;1.214;2022-10-16T11:54:47;100681.66;;;17.67;47.90
66381;BME280;53177;52.648;1.214;2022-10-16T11:57:31;100683.31;;;17.30;49.30
66381;BME280;53177;52.648;1.214;2022-10-16T12:00:14;100678.03;;;17.20;46.92
66381;BME280;53177;52.648;1.214;2022-10-16T12:02:56;100682.25;;;17.45;48.02
66381;BME280;53177;52.648;1.214;2022-10-16T12:08:15;100695.09;;;16.78;46.39
66381;BME280;53177;52.648;1.214;2022-10-16T12:10:43;100685.44;;;17.14;49.82
66381;BME280;53177;52.648;1.214;2022-10-16T12:18:34;100696.50;;;17.56;45.51
66381;BME280;53177;52.648;1.214;2022-10-16T12:21:00;100694.28;;;17.77;43.16
66381;BME280;53177;52.648;1.214;2022-10-16T12:23:30;100695.53;;;17.84;43.20
66381;BME280;53177;52.648;1.214;2022-10-16T12:25:57;100685.72;;;17.51;42.65
66381;BME280;53177;52.648;1.214;2022-10-16T12:28:29;100678.38;;;17.13;43.47
66381;BME280;53177;52.648;1.214;2022-10-16T12:31:04;100682.41;;;17.54;45.31
66381;BME280;53177;52.648;1.214;2022-10-16T12:33:37;100681.38;;;17.50;42.86
66381;BME280;53177;52.648;1.214;2022-10-16T12:36:13;100673.47;;;16.97;44.46
66381;BME280;53177;52.648;1.214;2022-10-16T12:38:48;100673.81;;;17.65;49.74
66381;BME280;53177;52.648;1.214;2022-10-16T12:41:29;100676.97;;;17.73;47.09
66381;BME280;53177;52.648;1.214;2022-10-16T12:43:56;100679.00;;;17.81;43.23
66381;BME280;53177;52.648;1.214;2022-10-16T12:46:33;100679.19;;;17.14;43.59
66381;BME280;53177;52.648;1.214;2022-10-16T12:49:17;100680.94;;;17.61;43.08
66381;BME280;53177;52.648;1.214;2022-10-16T12:51:46;100692.75;;;17.71;43.31
66381;BME280;53177;52.648;1.214;2022-10-16T12:54:31;100684.97;;;17.45;41.51
66381;BME280;53177;52.648;1.214;2022-10-16T13:02:55;100685.13;;;17.54;42.18
66381;BME280;53177;52.648;1.214;2022-10-16T13:19:07;100700.47;;;17.82;43.76
66381;BME280;53177;52.648;1.214;2022-10-16T13:27:35;100709.56;;;17.35;44.18
66381;BME280;53177;52.648;1.214;2022-10-16T13:30:18;100703.72;;;17.47;45.78
66381;BME280;53177;52.648;1.214;2022-10-16T13:32:50;100707.59;;;17.22;42.49
66381;BME280;53177;52.648;1.214;2022-10-16T13:35:35;100703.84;;;17.36;44.25
66381;BME280;53177;52.648;1.214;2022-10-16T13:41:32;100695.59;;;17.04;47.60
66381;BME280;53177;52.648;1.214;2022-10-16T13:43:45;100706.19;;;17.24;46.74
66381;BME280;53177;52.648;1.214;2022-10-16T13:46:21;100710.31;;;17.40;51.18
66381;BME280;53177;52.648;1.214;2022-10-16T13:49:02;100706.13;;;17.29;52.12
66381;BME280;53177;52.648;1.214;2022-10-16T13:51:29;100720.66;;;16.96;46.71
66381;BME280;53177;52.648;1.214;2022-10-16T13:53:56;100711.31;;;16.83;47.65
66381;BME280;53177;52.648;1.214;2022-10-16T13:56:25;100712.78;;;17.18;48.84
66381;BME280;53177;52.648;1.214;2022-10-16T13:59:20;100713.28;;;17.01;54.63
66381;BME280;53177;52.648;1.214;2022-10-16T14:01:48;100711.88;;;17.04;49.29
66381;BME280;53177;52.648;1.214;2022-10-16T14:04:14;100700.53;;;17.21;51.12
66381;BME280;53177;52.648;1.214;2022-10-16T14:06:43;100705.34;;;17.05;48.76
66381;BME280;53177;52.648;1.214;2022-10-16T14:11:50;100707.28;;;17.23;52.54
66381;BME280;53177;52.648;1.214;2022-10-16T14:14:17;100711.16;;;16.98;50.69
66381;BME280;53177;52.648;1.214;2022-10-16T14:16:43;100709.22;;;16.80;50.84
66381;BME280;53177;52.648;1.214;2022-10-16T14:19:22;100714.44;;;16.71;51.37
66381;BME280;53177;52.648;1.214;2022-10-16T14:21:53;100713.06;;;16.98;52.38
66381;BME280;53177;52.648;1.214;2022-10-16T14:24:37;100717.56;;;17.26;53.63
66381;BME280;53177;52.648;1.214;2022-10-16T14:30:17;100723.28;;;16.82;51.94
66381;BME280;53177;52.648;1.214;2022-10-16T14:35:35;100724.88;;;16.83;51.13
66381;BME280;53177;52.648;1.214;2022-10-16T14:38:02;100725.56;;;16.69;53.17
66381;BME280;53177;52.648;1.214;2022-10-16T14:40:34;100718.03;;;16.90;52.55
66381;BME280;53177;52.648;1.214;2022-10-16T14:43:02;100717.16;;;16.71;52.91
66381;BME280;53177;52.648;1.214;2022-10-16T14:45:30;100722.16;;;16.59;54.41
66381;BME280;53177;52.648;1.214;2022-10-16T14:47:58;100722.38;;;16.62;53.60
66381;BME280;53177;52.648;1.214;2022-10-16T14:50:25;100711.97;;;16.69;54.05